createdAt,value
2024-02-29T00:01:40.911Z,26.4
2024-02-29T00:07:04.000Z,26.4
2024-02-29T00:12:42.891Z,26.4
2024-02-29T00:18:21.762Z,26.4
2024-02-29T00:24:00.590Z,26.4
2024-02-29T00:29:24.315Z,26.4
2024-02-29T00:35:03.014Z,26.4
2024-02-29T00:40:58.125Z,26.4
2024-02-29T00:46:37.274Z,26.4
2024-02-29T00:52:16.360Z,26.4
2024-02-29T00:57:55.307Z,26.4
2024-02-29T01:03:19.124Z,26.3
2024-02-29T01:08:57.556Z,26.3
2024-02-29T01:14:36.659Z,26.3
2024-02-29T01:20:15.304Z,26.3
2024-02-29T01:25:41.999Z,26.3
2024-02-29T01:31:20.177Z,26.3
2024-02-29T01:37:11.282Z,26.3
2024-02-29T01:42:50.068Z,26.3
2024-02-29T01:48:13.261Z,26.3
2024-02-29T01:53:52.978Z,26.3
2024-02-29T01:59:35.392Z,26.3
2024-02-29T02:05:14.322Z,27.3
2024-02-29T02:10:53.919Z,30.5
2024-02-29T02:16:16.997Z,33.9
2024-02-29T02:21:24.696Z,36.6
2024-02-29T02:26:47.867Z,38.7
2024-02-29T02:32:11.061Z,40.4
2024-02-29T02:37:33.700Z,41.8
2024-02-29T02:42:41.309Z,42.9
2024-02-29T02:48:04.355Z,43.6
2024-02-29T02:53:27.886Z,43.9
2024-02-29T02:58:51.072Z,44.3
2024-02-29T03:04:29.926Z,44.6
2024-02-29T03:10:08.496Z,44.9
2024-02-29T03:15:47.745Z,45.3
2024-02-29T03:21:26.572Z,45.6
2024-02-29T03:27:05.221Z,45.8
2024-02-29T03:32:43.950Z,45.9
2024-02-29T03:38:22.654Z,45.9
2024-02-29T03:44:01.205Z,45.9
2024-02-29T03:49:40.266Z,45.9
2024-02-29T03:55:18.770Z,45.9
2024-02-29T04:00:57.419Z,45.8
2024-02-29T04:06:36.585Z,45.8
2024-02-29T04:12:15.318Z,45.7
2024-02-29T04:17:54.056Z,45.6
2024-02-29T04:23:32.715Z,45.6
2024-02-29T04:29:11.614Z,45.4
2024-02-29T04:34:50.485Z,45.4
2024-02-29T04:40:29.368Z,45.3
2024-02-29T04:46:07.782Z,45.2
2024-02-29T04:51:30.592Z,45.1
2024-02-29T04:57:09.873Z,44.9
2024-02-29T05:02:49.070Z,44.9
2024-02-29T05:08:27.662Z,44.8
2024-02-29T05:13:53.142Z,44.6
2024-02-29T05:19:31.543Z,44.5
2024-02-29T05:25:10.160Z,44.4
2024-02-29T05:30:49.073Z,44.3
2024-02-29T05:36:29.782Z,44.1
2024-02-29T05:42:08.848Z,44
2024-02-29T05:47:51.989Z,43.8
2024-02-29T05:53:14.757Z,43.6
2024-02-29T05:58:53.283Z,43.4
2024-02-29T06:04:32.848Z,43
2024-02-29T06:10:13.215Z,42.8
2024-02-29T06:15:51.852Z,42.5
2024-02-29T06:21:30.998Z,42.4
2024-02-29T06:27:09.903Z,42.3
2024-02-29T06:32:49.257Z,42.1
2024-02-29T06:38:28.466Z,41.9
2024-02-29T06:43:52.136Z,41.8
2024-02-29T06:49:31.530Z,41.6
2024-02-29T06:55:11.127Z,41.5
2024-02-29T07:00:50.564Z,41.4
2024-02-29T07:06:29.471Z,41.3
2024-02-29T07:12:08.925Z,41.1
2024-02-29T07:17:48.645Z,41.1
2024-02-29T07:23:27.506Z,40.9
2024-02-29T07:28:51.365Z,40.8
2024-02-29T07:34:15.601Z,40.7
2024-02-29T07:39:55.036Z,40.6
2024-02-29T07:45:20.840Z,40.5
2024-02-29T07:51:01.247Z,40.4
2024-02-29T07:56:44.599Z,40.3
2024-02-29T08:02:24.826Z,40.3
2024-02-29T08:08:04.910Z,40.1
2024-02-29T08:13:44.208Z,40
2024-02-29T08:19:26.683Z,39.9
2024-02-29T08:25:05.672Z,39.6
2024-02-29T08:30:29.196Z,39.4
2024-02-29T08:36:10.431Z,39.3
2024-02-29T08:41:49.012Z,38.9
2024-02-29T08:47:27.936Z,38.8
2024-02-29T08:53:07.488Z,38.6
2024-02-29T08:58:45.664Z,38.6
2024-02-29T09:04:25.598Z,38.4
2024-02-29T09:10:06.589Z,38.4
2024-02-29T09:16:00.522Z,38.3
2024-02-29T09:21:40.296Z,38.2
2024-02-29T09:27:07.637Z,38.1
2024-02-29T09:32:50.493Z,38.1
2024-02-29T09:38:33.563Z,37.9
2024-02-29T09:44:48.926Z,37.9
2024-02-29T09:50:38.537Z,37.8
2024-02-29T09:56:19.468Z,37.8
2024-02-29T10:01:46.958Z,37.6
2024-02-29T10:07:28.936Z,37.6
2024-02-29T10:13:12.000Z,37.5
2024-02-29T10:18:53.121Z,37.4
2024-02-29T10:24:31.822Z,37.4
2024-02-29T10:30:12.540Z,37.3
2024-02-29T10:35:53.628Z,37.3
2024-02-29T10:41:32.546Z,37.3
2024-02-29T10:47:11.889Z,37.2
2024-02-29T10:52:35.873Z,37.2
2024-02-29T10:58:16.194Z,37.1
2024-02-29T11:03:55.172Z,37.1
2024-02-29T11:09:34.248Z,37
2024-02-29T11:15:13.392Z,49.9
2024-02-29T11:20:34.077Z,46.8
2024-02-29T11:26:20.456Z,44.2
2024-02-29T11:31:59.197Z,51.3
2024-02-29T11:37:40.930Z,52.7
2024-02-29T11:43:31.258Z,53.8
2024-02-29T11:48:57.039Z,53.8
2024-02-29T11:54:40.103Z,53.3
2024-02-29T12:00:32.031Z,52.9
2024-02-29T12:06:12.565Z,52.6
2024-02-29T12:11:55.657Z,52.1
2024-02-29T12:17:35.794Z,51.5
2024-02-29T12:23:02.630Z,51.1
2024-02-29T12:28:42.635Z,50.7
2024-02-29T12:34:23.413Z,50.6
2024-02-29T12:40:03.964Z,50.8
2024-02-29T12:45:43.818Z,50.1
2024-02-29T12:51:24.590Z,49.4
2024-02-29T12:57:07.723Z,49.5
2024-02-29T13:02:49.528Z,49
2024-02-29T13:08:16.191Z,48.5
2024-02-29T13:13:48.228Z,48.1
2024-02-29T13:19:12.759Z,47.9
2024-02-29T13:24:52.858Z,47.6
2024-02-29T13:30:21.099Z,47.4
2024-02-29T13:36:03.790Z,47.1
2024-02-29T13:41:43.051Z,46.8
2024-02-29T13:47:06.839Z,46.7
2024-02-29T13:53:04.012Z,47.1
2024-02-29T13:58:28.012Z,46.7
2024-02-29T14:03:52.769Z,46.1
2024-02-29T14:09:32.136Z,45.4
2024-02-29T14:15:11.748Z,44.1
2024-02-29T14:20:53.884Z,42.5
2024-02-29T14:26:17.802Z,41.3
2024-02-29T14:31:58.459Z,40.4
2024-02-29T14:37:37.658Z,39.9
2024-02-29T14:43:17.244Z,39.4
2024-02-29T14:48:56.939Z,39
2024-02-29T14:54:37.678Z,38.6
2024-02-29T15:00:01.933Z,38.3
2024-02-29T15:05:43.569Z,38.1
2024-02-29T15:11:26.009Z,37.8
2024-02-29T15:17:07.274Z,37.6
2024-02-29T15:22:31.420Z,37.4
2024-02-29T15:27:54.813Z,37.1
2024-02-29T15:33:34.564Z,36.9
2024-02-29T15:39:16.722Z,36.8
2024-02-29T15:44:55.985Z,36.7
2024-02-29T15:50:38.782Z,36.5
2024-02-29T15:56:03.627Z,36.4
2024-02-29T16:01:44.549Z,36.2
2024-02-29T16:07:26.171Z,35.9
2024-02-29T16:12:49.362Z,35.8
2024-02-29T16:18:16.711Z,35.6
2024-02-29T16:23:56.455Z,35.4
2024-02-29T16:29:35.513Z,35.2
2024-02-29T16:35:17.530Z,35.1
2024-02-29T16:40:56.318Z,35
2024-02-29T16:46:39.018Z,34.9
2024-02-29T16:52:18.457Z,34.8
2024-02-29T16:57:58.231Z,34.6
2024-02-29T17:03:40.913Z,33.9
2024-02-29T17:09:20.706Z,33.5
2024-02-29T17:15:02.872Z,33.3
2024-02-29T17:20:28.811Z,33.2
2024-02-29T17:26:08.059Z,33.1
2024-02-29T17:31:47.261Z,33.1
2024-02-29T17:37:10.914Z,32.9
2024-02-29T17:42:52.240Z,32.9
2024-02-29T17:48:31.555Z,32.8
2024-02-29T17:54:12.543Z,32.8
2024-02-29T17:59:52.129Z,32.7
2024-02-29T18:05:32.937Z,32.7
2024-02-29T18:11:20.400Z,32.6
2024-02-29T18:16:59.785Z,32.6
2024-02-29T18:22:39.842Z,32.5
2024-02-29T18:28:19.096Z,32.4
2024-02-29T18:33:58.450Z,32.4
2024-02-29T18:39:38.287Z,32.4
2024-02-29T18:45:18.498Z,32.3
2024-02-29T18:51:11.426Z,32.3
2024-02-29T18:56:53.135Z,32.3
2024-02-29T19:02:34.788Z,32.2
2024-02-29T19:08:17.501Z,32.2
2024-02-29T19:13:57.369Z,32.1
2024-02-29T19:19:04.704Z,32.1
2024-02-29T19:24:31.676Z,32.1
2024-02-29T19:30:11.371Z,32
2024-02-29T19:35:50.363Z,32
2024-02-29T19:41:32.838Z,31.9
2024-02-29T19:47:13.191Z,31.9
2024-02-29T19:52:36.878Z,31.9
2024-02-29T19:58:00.595Z,31.8
2024-02-29T20:03:41.106Z,31.6
2024-02-29T20:09:04.768Z,31.4
2024-02-29T20:14:28.721Z,31.2
2024-02-29T20:19:55.359Z,31.1
2024-02-29T20:25:03.149Z,31.1
2024-02-29T20:30:13.736Z,31.1
2024-02-29T20:35:54.779Z,31
2024-02-29T20:41:19.229Z,30.9
2024-02-29T20:46:43.509Z,30.9
2024-02-29T20:51:52.507Z,30.9
2024-02-29T20:57:16.256Z,30.9
2024-02-29T21:02:24.550Z,30.8
2024-02-29T21:07:33.585Z,30.8
2024-02-29T21:12:57.607Z,30.8
2024-02-29T21:18:21.287Z,30.7
2024-02-29T21:23:45.256Z,30.7
2024-02-29T21:29:08.201Z,30.7
2024-02-29T21:34:35.061Z,30.6
2024-02-29T21:40:06.898Z,30.6
2024-02-29T21:45:32.665Z,30.1
2024-02-29T21:51:11.350Z,29.8
2024-02-29T21:56:50.789Z,29.6
2024-02-29T22:02:29.874Z,29.6
2024-02-29T22:07:55.287Z,29.5
2024-02-29T22:13:37.277Z,29.4
2024-02-29T22:19:19.576Z,29.4
2024-02-29T22:24:58.353Z,29.3
2024-02-29T22:30:22.563Z,29.3
2024-02-29T22:36:01.875Z,29.3
2024-02-29T22:41:44.393Z,29.2
2024-02-29T22:47:32.202Z,29.2
2024-02-29T22:53:11.376Z,29.1
2024-02-29T22:58:50.511Z,29.1
2024-02-29T23:04:36.543Z,29.1
2024-02-29T23:10:15.579Z,29
2024-02-29T23:15:39.555Z,29
2024-02-29T23:21:03.807Z,29
2024-02-29T23:26:48.532Z,28.9
2024-02-29T23:32:30.696Z,28.9
2024-02-29T23:38:10.331Z,28.9
2024-02-29T23:43:33.963Z,28.8
2024-02-29T23:49:12.365Z,28.8
2024-02-29T23:54:51.849Z,28.8
